createdAt,value
2022-10-07T00:00:00.896Z,6.6
2022-10-07T00:02:01.041Z,6.5
2022-10-07T00:03:01.046Z,6.7
2022-10-07T00:05:01.136Z,6.5
2022-10-07T00:11:00.962Z,6.5
2022-10-07T00:13:00.963Z,6.3
2022-10-07T00:14:00.925Z,6.2
2022-10-07T00:15:00.970Z,6.4
2022-10-07T00:16:00.965Z,6.3
2022-10-07T00:18:01.007Z,6.4
2022-10-07T00:21:00.947Z,6.3
2022-10-07T00:23:00.956Z,6.2
2022-10-07T00:30:00.996Z,6.1
2022-10-07T00:33:00.954Z,6
2022-10-07T00:35:00.894Z,6.2
2022-10-07T00:36:00.956Z,6.1
2022-10-07T00:37:00.937Z,6
2022-10-07T00:40:00.926Z,5.9
2022-10-07T00:42:00.893Z,6
2022-10-07T00:45:00.905Z,5.8
2022-10-07T00:48:00.867Z,5.7
2022-10-07T00:52:00.961Z,5.6
2022-10-07T00:55:00.913Z,5.5
2022-10-07T00:56:00.935Z,5.6
2022-10-07T00:58:00.940Z,5.7
2022-10-07T00:59:00.941Z,5.5
2022-10-07T01:02:00.934Z,5.5
2022-10-07T01:03:00.935Z,5.7
2022-10-07T01:05:00.913Z,5.6
2022-10-07T01:06:00.912Z,5.4
2022-10-07T01:07:00.902Z,5.5
2022-10-07T01:14:00.955Z,5.4
2022-10-07T01:16:00.930Z,5.3
2022-10-07T01:17:00.993Z,5.4
2022-10-07T01:19:00.963Z,5.4
2022-10-07T01:20:01.000Z,5.3
2022-10-07T01:23:00.922Z,5.4
2022-10-07T01:28:01.029Z,5.3
2022-10-07T01:31:01.130Z,5.4
2022-10-07T01:34:00.982Z,5.3
2022-10-07T01:36:00.965Z,5.4
2022-10-07T01:38:00.940Z,5.3
2022-10-07T01:41:00.920Z,5.3
2022-10-07T01:42:00.928Z,5.5
2022-10-07T01:43:00.910Z,5.3
2022-10-07T01:48:00.975Z,5.4
2022-10-07T01:50:01.002Z,5.3
2022-10-07T01:52:01.004Z,5.4
2022-10-07T01:54:00.940Z,5.5
2022-10-07T01:55:00.916Z,5.4
2022-10-07T01:56:00.945Z,5.3
2022-10-07T01:57:00.940Z,5.4
2022-10-07T02:05:00.977Z,5.5
2022-10-07T02:06:00.936Z,5.3
2022-10-07T02:11:00.997Z,5.5
2022-10-07T02:13:00.956Z,5.3
2022-10-07T02:14:00.989Z,5.4
2022-10-07T02:17:00.964Z,5.4
2022-10-07T02:19:00.950Z,5.3
2022-10-07T02:23:00.949Z,5.1
2022-10-07T02:24:00.970Z,5.2
2022-10-07T02:25:01.028Z,5.1
2022-10-07T02:27:01.001Z,5.2
2022-10-07T02:29:00.974Z,5.1
2022-10-07T02:30:01.043Z,5.2
2022-10-07T02:32:01.007Z,5.2
2022-10-07T02:40:00.924Z,5.3
2022-10-07T02:43:00.933Z,5.4
2022-10-07T02:46:00.932Z,5.2
2022-10-07T02:47:00.921Z,5.3
2022-10-07T02:51:01.016Z,5.4
2022-10-07T02:52:00.906Z,5.3
2022-10-07T02:55:00.883Z,5.4
2022-10-07T02:56:00.939Z,5.3
2022-10-07T02:57:00.924Z,5.4
2022-10-07T02:59:00.921Z,5.4
2022-10-07T03:00:00.906Z,5.5
2022-10-07T03:01:00.935Z,5.4
2022-10-07T03:07:00.916Z,5.5
2022-10-07T03:08:00.904Z,5.6
2022-10-07T03:10:00.934Z,5.5
2022-10-07T03:15:00.967Z,5.7
2022-10-07T03:16:00.957Z,5.6
2022-10-07T03:18:00.951Z,5.7
2022-10-07T03:26:00.936Z,5.6
2022-10-07T03:27:00.922Z,5.7
2022-10-07T03:29:00.896Z,5.6
2022-10-07T03:30:01.020Z,5.7
2022-10-07T03:32:00.931Z,5.7
2022-10-07T03:34:00.972Z,5.6
2022-10-07T03:36:00.911Z,5.6
2022-10-07T03:37:00.906Z,5.5
2022-10-07T03:38:00.917Z,5.6
2022-10-07T03:39:00.946Z,5.5
2022-10-07T03:41:00.941Z,5.4
2022-10-07T03:44:00.889Z,5.4
2022-10-07T03:46:00.967Z,5.3
2022-10-07T03:52:00.915Z,5.2
2022-10-07T03:53:00.941Z,5.3
2022-10-07T03:55:00.910Z,5.1
2022-10-07T03:56:00.944Z,5.2
2022-10-07T03:59:00.932Z,5.1
2022-10-07T04:01:00.915Z,5.2
2022-10-07T04:02:00.947Z,5.3
2022-10-07T04:06:00.931Z,5.1
2022-10-07T04:09:00.903Z,5.2
2022-10-07T04:11:00.962Z,5.1
2022-10-07T04:13:00.928Z,5.1
2022-10-07T04:15:00.930Z,5.2
2022-10-07T04:17:00.944Z,5.1
2022-10-07T04:19:00.929Z,5.1
2022-10-07T04:21:00.917Z,5
2022-10-07T04:22:03.908Z,5.1
2022-10-07T04:24:00.907Z,4.9
2022-10-07T04:26:00.950Z,5
2022-10-07T04:31:00.953Z,5
2022-10-07T04:32:00.893Z,4.9
2022-10-07T04:37:01.161Z,4.8
2022-10-07T04:40:01.341Z,4.8
2022-10-07T04:42:00.919Z,4.7
2022-10-07T04:43:00.953Z,4.9
2022-10-07T04:47:00.986Z,4.8
2022-10-07T04:48:00.918Z,4.9
2022-10-07T04:49:00.912Z,5
2022-10-07T04:53:00.894Z,5.1
2022-10-07T04:54:00.921Z,4.9
2022-10-07T04:56:00.899Z,5
2022-10-07T04:57:00.903Z,4.9
2022-10-07T04:59:00.898Z,5
2022-10-07T05:01:01.026Z,5.1
2022-10-07T05:10:00.982Z,5.1
2022-10-07T05:11:00.986Z,4.9
2022-10-07T05:13:00.912Z,5.1
2022-10-07T05:14:00.889Z,5
2022-10-07T05:15:00.909Z,5.2
2022-10-07T05:16:00.926Z,5.1
2022-10-07T05:17:00.920Z,5
2022-10-07T05:22:00.900Z,5.3
2022-10-07T05:24:00.922Z,5.2
2022-10-07T05:25:00.921Z,5.3
2022-10-07T05:26:00.900Z,5.4
2022-10-07T05:27:00.910Z,5.5
2022-10-07T05:29:00.903Z,5.6
2022-10-07T05:30:00.952Z,5.5
2022-10-07T05:32:04.611Z,5.5
2022-10-07T05:37:00.932Z,5.7
2022-10-07T05:39:00.976Z,5.7
2022-10-07T05:41:00.928Z,5.8
2022-10-07T05:43:00.996Z,5.7
2022-10-07T05:45:00.895Z,5.9
2022-10-07T05:46:01.046Z,5.7
2022-10-07T05:50:00.955Z,5.8
2022-10-07T05:53:00.927Z,6
2022-10-07T05:54:00.906Z,5.9
2022-10-07T05:58:00.966Z,6.1
2022-10-07T06:00:00.918Z,6.2
2022-10-07T06:02:01.057Z,6.1
2022-10-07T06:03:01.058Z,6.2
2022-10-07T06:05:00.890Z,6.3
2022-10-07T06:08:00.917Z,6.5
2022-10-07T06:10:00.970Z,6.6
2022-10-07T06:12:01.061Z,6.5
2022-10-07T06:14:00.936Z,6.7
2022-10-07T06:16:01.069Z,6.8
2022-10-07T06:18:00.902Z,7
2022-10-07T06:19:00.924Z,7.3
2022-10-07T06:21:00.968Z,7.6
2022-10-07T06:23:00.922Z,8.1
2022-10-07T06:24:00.926Z,8.3
2022-10-07T06:25:00.931Z,8.4
2022-10-07T06:26:00.908Z,8.5
2022-10-07T06:28:00.981Z,8.7
2022-10-07T06:29:00.901Z,8.8
2022-10-07T06:30:00.994Z,9
2022-10-07T06:35:00.918Z,9
2022-10-07T06:36:04.261Z,8.9
2022-10-07T06:37:00.904Z,8.7
2022-10-07T06:39:00.925Z,8.6
2022-10-07T06:41:00.915Z,8.5
2022-10-07T06:42:00.906Z,8.4
2022-10-07T06:44:00.912Z,8.2
2022-10-07T06:46:00.990Z,8.3
2022-10-07T06:48:00.909Z,8.2
2022-10-07T06:50:00.907Z,8.2
2022-10-07T06:55:00.906Z,8.2
2022-10-07T06:57:00.940Z,8.3
2022-10-07T06:59:00.919Z,8.3
2022-10-07T07:00:00.948Z,8.2
2022-10-07T07:01:00.970Z,8.3
2022-10-07T07:06:00.956Z,8.6
2022-10-07T07:08:00.914Z,9
2022-10-07T07:09:00.916Z,9.1
2022-10-07T07:10:00.967Z,9.5
2022-10-07T07:12:00.946Z,10.4
2022-10-07T07:14:00.900Z,11
2022-10-07T07:15:00.952Z,11.5
2022-10-07T07:17:01.016Z,12.1
2022-10-07T07:18:00.919Z,12.2
2022-10-07T07:20:00.901Z,12.4
2022-10-07T07:21:00.909Z,12.5
2022-10-07T07:22:00.926Z,12.6
2022-10-07T07:23:00.921Z,12.4
2022-10-07T07:24:00.920Z,12.7
2022-10-07T07:26:00.899Z,12.8
2022-10-07T07:27:00.912Z,12.6
2022-10-07T07:28:00.917Z,12.8
2022-10-07T07:29:00.950Z,12.7
2022-10-07T07:32:00.978Z,12.6
2022-10-07T07:36:00.923Z,12.7
2022-10-07T07:37:00.941Z,12.5
2022-10-07T07:38:00.920Z,12.4
2022-10-07T07:39:00.968Z,12.5
2022-10-07T07:42:00.923Z,12.3
2022-10-07T07:45:00.924Z,12.2
2022-10-07T07:46:00.961Z,12.3
2022-10-07T07:48:00.944Z,12.2
2022-10-07T07:51:00.920Z,12.4
2022-10-07T07:52:00.911Z,12
2022-10-07T07:53:00.885Z,12.1
2022-10-07T07:54:00.911Z,12.2
2022-10-07T07:59:00.897Z,12.3
2022-10-07T08:01:01.017Z,12.4
2022-10-07T08:04:01.017Z,12.5
2022-10-07T08:06:00.941Z,12.7
2022-10-07T08:07:00.916Z,12.8
2022-10-07T08:08:00.930Z,12.7
2022-10-07T08:10:00.896Z,12.9
2022-10-07T08:13:00.901Z,13
2022-10-07T08:14:00.921Z,13.1
2022-10-07T08:15:00.907Z,13.2
2022-10-07T08:16:00.924Z,13.3
2022-10-07T08:19:00.889Z,13.4
2022-10-07T08:20:00.907Z,13.6
2022-10-07T08:22:00.908Z,13.7
2022-10-07T08:23:00.901Z,13.8
2022-10-07T08:25:00.909Z,13.9
2022-10-07T08:27:00.897Z,14
2022-10-07T08:29:00.945Z,14.1
2022-10-07T08:31:00.991Z,14.3
2022-10-07T08:34:00.892Z,14.6
2022-10-07T08:35:00.917Z,14.5
2022-10-07T08:37:00.891Z,14.6
2022-10-07T08:39:00.941Z,14.7
2022-10-07T08:41:00.925Z,14.9
2022-10-07T08:44:01.176Z,15.1
2022-10-07T08:45:00.958Z,15.2
2022-10-07T08:49:00.908Z,15.6
2022-10-07T08:51:00.885Z,15.7
2022-10-07T08:52:00.954Z,15.6
2022-10-07T08:55:00.935Z,15.6
2022-10-07T08:56:00.964Z,15.7
2022-10-07T08:57:00.890Z,15.9
2022-10-07T08:58:00.931Z,15.8
2022-10-07T08:59:00.941Z,16
2022-10-07T09:01:01.023Z,16.2
2022-10-07T09:03:00.935Z,16.3
2022-10-07T09:07:00.918Z,16.7
2022-10-07T09:08:00.999Z,16.5
2022-10-07T09:10:00.983Z,16.6
2022-10-07T09:12:01.000Z,16.8
2022-10-07T09:14:00.894Z,16.8
2022-10-07T09:15:00.986Z,17
2022-10-07T09:17:00.903Z,17.1
2022-10-07T09:19:00.962Z,17.2
2022-10-07T09:22:00.920Z,17.4
2022-10-07T09:25:00.922Z,17.6
2022-10-07T09:26:00.950Z,17.5
2022-10-07T09:27:00.951Z,17.6
2022-10-07T09:31:01.035Z,17.9
2022-10-07T09:33:00.966Z,18
2022-10-07T09:35:00.938Z,17.9
2022-10-07T09:36:00.935Z,18
2022-10-07T09:38:00.946Z,18.1
2022-10-07T09:39:00.973Z,18.2
2022-10-07T09:41:00.925Z,18.3
2022-10-07T09:44:00.898Z,18.4
2022-10-07T09:46:00.998Z,18.5
2022-10-07T09:49:00.922Z,18.6
2022-10-07T09:50:00.902Z,18.7
2022-10-07T09:51:00.897Z,18.6
2022-10-07T09:52:00.967Z,18.7
2022-10-07T09:54:00.960Z,18.9
2022-10-07T09:56:00.967Z,19
2022-10-07T09:57:01.024Z,18.9
2022-10-07T09:59:00.959Z,18.9
2022-10-07T10:01:00.976Z,19.1
2022-10-07T10:03:04.897Z,19.2
2022-10-07T10:07:00.897Z,19.2
2022-10-07T10:08:00.915Z,19.1
2022-10-07T10:11:00.898Z,19.2
2022-10-07T10:14:00.929Z,19.3
2022-10-07T10:16:00.983Z,19.2
2022-10-07T10:18:00.898Z,19.4
2022-10-07T10:20:00.975Z,19.5
2022-10-07T10:21:00.932Z,19.4
2022-10-07T10:23:00.918Z,19.5
2022-10-07T10:24:00.897Z,19.4
2022-10-07T10:25:00.904Z,19.3
2022-10-07T10:27:00.906Z,19.2
2022-10-07T10:28:00.971Z,19.3
2022-10-07T10:29:00.934Z,19.4
2022-10-07T10:31:01.083Z,19.6
2022-10-07T10:34:00.929Z,19.8
2022-10-07T10:35:00.944Z,19.7
2022-10-07T10:37:00.896Z,20
2022-10-07T10:39:00.916Z,19.9
2022-10-07T10:41:00.952Z,20.1
2022-10-07T10:42:00.955Z,20.2
2022-10-07T10:45:00.894Z,20.2
2022-10-07T10:46:00.958Z,20.3
2022-10-07T10:56:00.912Z,20.4
2022-10-07T10:57:00.955Z,20.6
2022-10-07T10:58:01.016Z,20.5
2022-10-07T11:00:00.959Z,20.5
2022-10-07T11:01:00.950Z,20.7
2022-10-07T11:03:00.950Z,20.9
2022-10-07T11:04:00.895Z,21
2022-10-07T11:06:00.935Z,20.9
2022-10-07T11:08:01.952Z,20.9
2022-10-07T11:09:00.955Z,21
2022-10-07T11:11:00.916Z,20.9
2022-10-07T11:12:01.619Z,21
2022-10-07T11:13:00.894Z,21.1
2022-10-07T11:14:00.904Z,21
2022-10-07T11:17:00.968Z,21.1
2022-10-07T11:20:00.893Z,21.2
2022-10-07T11:23:00.947Z,21.3
2022-10-07T11:25:00.913Z,20.9
2022-10-07T11:26:00.910Z,20.8
2022-10-07T11:29:00.919Z,20.9
2022-10-07T11:30:00.973Z,21.1
2022-10-07T11:32:00.902Z,21.1
2022-10-07T11:34:00.951Z,21
2022-10-07T11:35:00.933Z,21.2
2022-10-07T11:37:00.940Z,21.3
2022-10-07T11:39:01.077Z,21.2
2022-10-07T11:42:00.940Z,21.2
2022-10-07T11:44:00.914Z,21.2
2022-10-07T11:48:00.936Z,21.1
2022-10-07T11:54:00.919Z,21.2
2022-10-07T11:55:00.920Z,21.1
2022-10-07T11:57:00.904Z,21.2
2022-10-07T11:58:00.903Z,21.3
2022-10-07T12:04:00.906Z,21.4
2022-10-07T12:05:00.937Z,21.3
2022-10-07T12:06:00.929Z,21.5
2022-10-07T12:07:00.907Z,21.3
2022-10-07T12:08:00.927Z,21.4
2022-10-07T12:09:00.926Z,21.5
2022-10-07T12:12:00.915Z,21.6
2022-10-07T12:15:00.919Z,21.5
2022-10-07T12:19:00.934Z,21.6
2022-10-07T12:20:00.934Z,21.5
2022-10-07T12:21:00.924Z,21.6
2022-10-07T12:23:00.957Z,21.7
2022-10-07T12:26:00.904Z,21.5
2022-10-07T12:27:00.907Z,21.6
2022-10-07T12:28:00.961Z,21.4
2022-10-07T12:30:00.946Z,21.2
2022-10-07T12:31:00.957Z,21.3
2022-10-07T12:32:01.057Z,21.2
2022-10-07T12:34:01.041Z,21.2
2022-10-07T12:36:00.916Z,21.2
2022-10-07T12:37:00.908Z,21.1
2022-10-07T12:40:00.970Z,21.1
2022-10-07T12:41:00.990Z,21.2
2022-10-07T12:43:00.895Z,21.1
2022-10-07T12:46:00.916Z,21
2022-10-07T12:47:00.892Z,21.1
2022-10-07T12:48:00.922Z,21
2022-10-07T12:50:00.991Z,20.9
2022-10-07T12:53:00.929Z,20.9
2022-10-07T12:54:00.953Z,20.8
2022-10-07T12:55:00.955Z,20.7
2022-10-07T12:57:00.911Z,20.5
2022-10-07T12:58:00.916Z,20.6
2022-10-07T12:59:01.000Z,20.5
2022-10-07T13:00:00.985Z,20.6
2022-10-07T13:02:01.006Z,20.5
2022-10-07T13:05:00.912Z,20.4
2022-10-07T13:06:00.896Z,20.6
2022-10-07T13:09:00.976Z,20.5
2022-10-07T13:11:00.896Z,20.4
2022-10-07T13:12:00.903Z,20.3
2022-10-07T13:14:00.881Z,20.4
2022-10-07T13:15:00.974Z,20.3
2022-10-07T13:17:00.957Z,20.1
2022-10-07T13:19:00.911Z,20.2
2022-10-07T13:23:00.917Z,20.3
2022-10-07T13:24:00.910Z,20.2
2022-10-07T13:27:00.908Z,19.9
2022-10-07T13:31:00.905Z,19.7
2022-10-07T13:32:01.066Z,19.6
2022-10-07T13:36:00.977Z,19.7
2022-10-07T13:37:00.962Z,19.6
2022-10-07T13:38:01.048Z,19.5
2022-10-07T13:40:01.008Z,19.9
2022-10-07T13:41:00.922Z,19.7
2022-10-07T13:44:00.895Z,19.6
2022-10-07T13:45:00.945Z,19.7
2022-10-07T13:47:00.924Z,19.7
2022-10-07T13:49:00.990Z,19.8
2022-10-07T13:53:00.979Z,19.5
2022-10-07T13:57:00.961Z,19.5
2022-10-07T13:58:00.928Z,19.4
2022-10-07T14:01:00.967Z,19.4
2022-10-07T14:03:00.958Z,19.3
2022-10-07T14:06:00.899Z,19.4
2022-10-07T14:07:00.911Z,19.3
2022-10-07T14:09:00.931Z,19.4
2022-10-07T14:10:01.083Z,19.2
2022-10-07T14:12:00.910Z,19.2
2022-10-07T14:13:00.924Z,19.3
2022-10-07T14:15:00.911Z,19.4
2022-10-07T14:17:01.004Z,19.2
2022-10-07T14:19:00.916Z,19.3
2022-10-07T14:20:00.928Z,19.1
2022-10-07T14:22:00.960Z,19.1
2022-10-07T14:23:00.928Z,19
2022-10-07T14:24:00.971Z,19.1
2022-10-07T14:25:01.003Z,19
2022-10-07T14:28:00.937Z,18.8
2022-10-07T14:30:01.041Z,18.9
2022-10-07T14:32:00.983Z,18.8
2022-10-07T14:34:00.953Z,18.7
2022-10-07T14:36:00.925Z,18.6
2022-10-07T14:37:00.934Z,18.7
2022-10-07T14:41:00.899Z,18.6
2022-10-07T14:42:00.942Z,18.7
2022-10-07T14:45:00.895Z,18.6
2022-10-07T14:47:00.944Z,18.7
2022-10-07T14:49:01.002Z,18.6
2022-10-07T14:51:00.921Z,18.5
2022-10-07T14:53:00.904Z,18.6
2022-10-07T14:58:00.989Z,18.6
2022-10-07T15:00:00.903Z,18.6
2022-10-07T15:01:00.914Z,18.5
2022-10-07T15:04:01.122Z,18.4
2022-10-07T15:06:00.889Z,18.3
2022-10-07T15:07:00.906Z,18.5
2022-10-07T15:08:01.007Z,18.3
2022-10-07T15:10:00.927Z,18.2
2022-10-07T15:12:00.966Z,18.1
2022-10-07T15:14:00.910Z,18.1
2022-10-07T15:15:00.982Z,18.2
2022-10-07T15:16:00.997Z,18.1
2022-10-07T15:18:00.952Z,18
2022-10-07T15:21:00.925Z,17.8
2022-10-07T15:24:00.902Z,17.8
2022-10-07T15:25:01.028Z,17.7
2022-10-07T15:28:00.927Z,17.6
2022-10-07T15:30:01.012Z,17.5
2022-10-07T15:33:01.009Z,17.3
2022-10-07T15:35:00.885Z,17.4
2022-10-07T15:38:00.924Z,17.3
2022-10-07T15:39:00.936Z,17.4
2022-10-07T15:41:00.906Z,17.3
2022-10-07T15:43:00.922Z,17.1
2022-10-07T15:46:00.904Z,17
2022-10-07T15:47:00.959Z,17.1
2022-10-07T15:49:00.936Z,17
2022-10-07T15:50:00.946Z,16.9
2022-10-07T15:52:00.906Z,16.8
2022-10-07T15:53:00.924Z,16.7
2022-10-07T15:56:00.892Z,16.6
2022-10-07T15:58:00.987Z,16.5
2022-10-07T16:01:00.896Z,16.3
2022-10-07T16:02:00.932Z,16.4
2022-10-07T16:03:01.029Z,16.3
2022-10-07T16:06:00.901Z,16.2
2022-10-07T16:07:00.935Z,16.1
2022-10-07T16:11:00.944Z,16
2022-10-07T16:13:00.915Z,16
2022-10-07T16:14:00.954Z,15.7
2022-10-07T16:17:00.984Z,15.6
2022-10-07T16:19:00.940Z,15.6
2022-10-07T16:22:00.902Z,15.5
2022-10-07T16:23:00.893Z,15.4
2022-10-07T16:26:00.935Z,15.3
2022-10-07T16:30:01.149Z,15
2022-10-07T16:33:00.949Z,15
2022-10-07T16:34:01.000Z,14.9
2022-10-07T16:37:00.899Z,14.7
2022-10-07T16:39:00.894Z,14.6
2022-10-07T16:41:00.940Z,14.4
2022-10-07T16:43:00.908Z,14.3
2022-10-07T16:45:00.897Z,14.2
2022-10-07T16:47:00.984Z,14.1
2022-10-07T16:49:00.905Z,14.2
2022-10-07T16:51:00.882Z,14.1
2022-10-07T16:52:00.953Z,14
2022-10-07T16:54:00.899Z,13.9
2022-10-07T16:55:00.913Z,13.6
2022-10-07T16:56:00.922Z,13.8
2022-10-07T16:58:00.907Z,13.8
2022-10-07T17:00:00.921Z,13.7
2022-10-07T17:02:00.975Z,13.5
2022-10-07T17:04:00.973Z,13.5
2022-10-07T17:05:01.069Z,13.6
2022-10-07T17:08:00.905Z,13.5
2022-10-07T17:10:00.924Z,13.4
2022-10-07T17:11:00.908Z,13.6
2022-10-07T17:14:00.889Z,13.3
2022-10-07T17:16:00.937Z,13.5
2022-10-07T17:17:00.950Z,13.3
2022-10-07T17:19:00.956Z,13.4
2022-10-07T17:25:00.929Z,13.2
2022-10-07T17:26:00.936Z,13.1
2022-10-07T17:28:00.987Z,13.2
2022-10-07T17:30:01.031Z,13.1
2022-10-07T17:33:00.954Z,13.2
2022-10-07T17:34:00.946Z,13.1
2022-10-07T17:37:00.989Z,13
2022-10-07T17:39:00.968Z,13.1
2022-10-07T17:41:00.916Z,13
2022-10-07T17:42:00.952Z,12.9
2022-10-07T17:44:00.905Z,13
2022-10-07T17:46:00.910Z,12.9
2022-10-07T17:47:01.071Z,12.8
2022-10-07T17:48:01.076Z,12.9
2022-10-07T17:51:00.916Z,12.6
2022-10-07T17:52:00.973Z,12.9
2022-10-07T17:54:01.062Z,12.7
2022-10-07T17:56:00.926Z,12.7
2022-10-07T17:57:00.994Z,12.6
2022-10-07T17:59:00.892Z,12.7
2022-10-07T18:00:00.897Z,12.6
2022-10-07T18:02:00.976Z,12.6
2022-10-07T18:05:00.995Z,12.7
2022-10-07T18:08:00.893Z,12.4
2022-10-07T18:09:00.899Z,12.6
2022-10-07T18:10:00.905Z,12.4
2022-10-07T18:11:00.959Z,12.5
2022-10-07T18:14:00.887Z,12.4
2022-10-07T18:15:00.901Z,12.5
2022-10-07T18:16:00.942Z,12.4
2022-10-07T18:19:00.935Z,12.3
2022-10-07T18:21:00.935Z,12.3
2022-10-07T18:22:00.950Z,12.4
2022-10-07T18:25:00.910Z,12.2
2022-10-07T18:26:02.839Z,12.4
2022-10-07T18:29:00.925Z,12.2
2022-10-07T18:32:00.946Z,12.3
2022-10-07T18:34:00.949Z,12.2
2022-10-07T18:39:00.900Z,12.1
2022-10-07T18:42:00.912Z,12.2
2022-10-07T18:47:00.928Z,12.1
2022-10-07T18:51:00.948Z,12.2
2022-10-07T18:52:00.974Z,12.1
2022-10-07T18:55:00.927Z,12
2022-10-07T18:57:01.070Z,12
2022-10-07T18:58:00.917Z,12.2
2022-10-07T18:59:00.984Z,12
2022-10-07T19:02:01.019Z,11.9
2022-10-07T19:03:00.957Z,12
2022-10-07T19:04:01.130Z,12.1
2022-10-07T19:06:00.950Z,11.9
2022-10-07T19:07:00.993Z,12
2022-10-07T19:14:01.021Z,11.9
2022-10-07T19:16:01.004Z,12
2022-10-07T19:22:00.965Z,12
2022-10-07T19:24:00.939Z,11.9
2022-10-07T19:29:00.905Z,11.8
2022-10-07T19:30:01.018Z,11.9
2022-10-07T19:33:01.020Z,12.1
2022-10-07T19:35:00.923Z,12.1
2022-10-07T19:36:00.917Z,11.9
2022-10-07T19:39:00.959Z,12
2022-10-07T19:41:00.919Z,11.9
2022-10-07T19:43:00.992Z,12
2022-10-07T19:44:00.951Z,11.9
2022-10-07T19:49:00.930Z,12
2022-10-07T19:51:00.991Z,11.9
2022-10-07T19:53:00.953Z,11.9
2022-10-07T19:54:00.956Z,11.8
2022-10-07T20:00:01.010Z,11.8
2022-10-07T20:02:01.404Z,11.9
2022-10-07T20:04:00.944Z,12
2022-10-07T20:07:00.956Z,11.9
2022-10-07T20:09:00.995Z,11.8
2022-10-07T20:15:00.970Z,11.8
2022-10-07T20:17:01.082Z,11.9
2022-10-07T20:20:00.910Z,11.9
2022-10-07T20:21:00.921Z,11.8
2022-10-07T20:23:00.905Z,11.7
2022-10-07T20:24:00.931Z,11.9
2022-10-07T20:26:00.915Z,11.7
2022-10-07T20:27:00.962Z,11.8
2022-10-07T20:28:00.963Z,11.9
2022-10-07T20:32:00.976Z,11.9
2022-10-07T20:34:01.064Z,11.8
2022-10-07T20:37:00.913Z,11.9
2022-10-07T20:44:00.885Z,12
2022-10-07T20:48:00.985Z,11.9
2022-10-07T20:53:00.894Z,11.8
2022-10-07T20:54:00.899Z,11.9
2022-10-07T20:56:01.028Z,11.8
2022-10-07T20:58:00.936Z,11.7
2022-10-07T20:59:01.019Z,11.8
2022-10-07T21:02:02.238Z,11.7
2022-10-07T21:04:00.918Z,11.7
2022-10-07T21:05:00.976Z,11.9
2022-10-07T21:08:00.921Z,11.8
2022-10-07T21:10:00.948Z,11.7
2022-10-07T21:12:00.951Z,11.7
2022-10-07T21:13:00.996Z,11.8
2022-10-07T21:15:00.994Z,11.6
2022-10-07T21:19:00.965Z,11.8
2022-10-07T21:21:00.933Z,11.6
2022-10-07T21:22:00.971Z,11.7
2022-10-07T21:24:00.912Z,11.6
2022-10-07T21:29:00.941Z,11.8
2022-10-07T21:30:00.977Z,11.7
2022-10-07T21:32:00.906Z,11.8
2022-10-07T21:33:00.942Z,11.6
2022-10-07T21:37:01.069Z,11.8
2022-10-07T21:39:01.008Z,11.5
2022-10-07T21:40:00.946Z,11.6
2022-10-07T21:43:00.905Z,11.7
2022-10-07T21:44:01.064Z,11.6
2022-10-07T21:48:00.906Z,11.7
2022-10-07T21:49:00.967Z,11.5
2022-10-07T21:50:00.970Z,11.6
2022-10-07T21:51:03.565Z,11.7
2022-10-07T21:53:00.958Z,11.6
2022-10-07T21:56:01.011Z,11.7
2022-10-07T21:57:00.945Z,11.6
2022-10-07T21:58:00.960Z,11.7
2022-10-07T22:01:00.982Z,11.6
2022-10-07T22:03:01.041Z,11.8
2022-10-07T22:05:00.964Z,11.6
2022-10-07T22:07:00.933Z,11.5
2022-10-07T22:09:00.943Z,11.7
2022-10-07T22:10:00.938Z,11.6
2022-10-07T22:11:00.950Z,11.7
2022-10-07T22:14:00.903Z,11.5
2022-10-07T22:15:00.947Z,11.6
2022-10-07T22:16:01.018Z,11.7
2022-10-07T22:19:00.933Z,11.7
2022-10-07T22:26:00.959Z,11.8
2022-10-07T22:29:00.993Z,11.6
2022-10-07T22:31:01.003Z,11.7
2022-10-07T22:33:00.970Z,11.5
2022-10-07T22:35:00.960Z,11.7
2022-10-07T22:37:00.902Z,11.6
2022-10-07T22:39:00.916Z,11.8
2022-10-07T22:40:00.966Z,11.6
2022-10-07T22:42:00.936Z,11.5
2022-10-07T22:43:00.967Z,11.6
2022-10-07T22:45:00.930Z,11.5
2022-10-07T22:46:00.967Z,11.6
2022-10-07T22:49:00.976Z,11.7
2022-10-07T22:52:00.903Z,11.6
2022-10-07T22:53:00.970Z,11.5
2022-10-07T22:54:00.977Z,11.6
2022-10-07T23:01:00.925Z,11.7
2022-10-07T23:02:00.921Z,11.9
2022-10-07T23:03:01.014Z,11.7
2022-10-07T23:05:01.049Z,11.9
2022-10-07T23:08:00.906Z,11.9
2022-10-07T23:10:00.925Z,12
2022-10-07T23:11:00.926Z,11.9
2022-10-07T23:14:00.922Z,12.1
2022-10-07T23:21:00.941Z,12.2
2022-10-07T23:22:00.938Z,12.1
2022-10-07T23:23:00.955Z,12.2
2022-10-07T23:25:00.985Z,12.3
2022-10-07T23:28:00.976Z,12.4
2022-10-07T23:30:00.966Z,12.3
2022-10-07T23:31:01.157Z,12.4
2022-10-07T23:33:00.963Z,12.2
2022-10-07T23:34:00.949Z,12.4
2022-10-07T23:36:00.904Z,12.4
2022-10-07T23:39:00.927Z,12.5
2022-10-07T23:42:00.960Z,12.4
2022-10-07T23:45:00.904Z,12.5
2022-10-07T23:46:01.006Z,12.4
2022-10-07T23:47:00.929Z,12.6
2022-10-07T23:50:00.913Z,12.5
2022-10-07T23:55:00.975Z,12.7
2022-10-07T23:56:00.945Z,12.6
2022-10-07T23:58:00.911Z,12.8
